Time;durP1;ratioP1;P1;durP2;ratioP2;P2;SDS_P1;SDS_P2;PMS_P1;PMS_P2;Temp;Humidity;BMP_temperature;BMP_pressure;BME280_temperature;BME280_humidity;BME280_pressure;Samples;Min_cycle;Max_cycle;Signal;HPM_P1;HPM_P2
2021/01/21 05:01:31;;;;;;;1.30;1.30;;;7.80;99.90;;;;;;5472492;23;20915;-71
2021/01/21 05:03:58;;;;;;;1.48;1.30;;;7.80;99.90;;;;;;4962244;28;20570;-71
2021/01/21 05:06:24;;;;;;;1.55;1.55;;;7.90;99.90;;;;;;4960424;28;20653;-72
2021/01/21 05:08:51;;;;;;;1.45;1.45;;;7.90;99.90;;;;;;4960144;28;20208;-72
2021/01/21 05:11:17;;;;;;;1.63;1.52;;;7.90;99.90;;;;;;4950888;28;20228;-72
2021/01/21 05:13:43;;;;;;;1.52;1.42;;;8.00;99.90;;;;;;4941424;29;20226;-72
2021/01/21 05:16:09;;;;;;;1.70;1.60;;;8.10;99.90;;;;;;4943934;28;20214;-72
2021/01/21 05:18:37;;;;;;;1.55;1.48;;;8.20;99.90;;;;;;4946712;29;20221;-72
2021/01/21 05:21:04;;;;;;;1.30;1.30;;;8.30;99.90;;;;;;4959466;28;20271;-72
2021/01/21 05:23:30;;;;;;;1.70;1.60;;;8.30;99.90;;;;;;4959376;28;20201;-72
2021/01/21 05:25:57;;;;;;;2.55;1.75;;;8.50;99.90;;;;;;4953153;28;20216;-72
2021/01/21 05:28:25;;;;;;;2.03;1.25;;;8.70;99.90;;;;;;4945977;29;20197;-70
2021/01/21 05:30:51;;;;;;;1.85;1.00;;;8.70;99.90;;;;;;4953916;28;20281;-70
2021/01/21 05:33:20;;;;;;;2.03;1.95;;;8.80;99.90;;;;;;4945090;29;20209;-70
2021/01/21 05:35:48;;;;;;;1.10;1.10;;;8.90;99.90;;;;;;4944920;29;20204;-72
2021/01/21 05:38:14;;;;;;;1.33;1.20;;;9.00;99.90;;;;;;4956888;28;20209;-72
2021/01/21 05:40:45;;;;;;;1.60;1.50;;;9.00;99.90;;;;;;4960348;28;20307;-72
2021/01/21 05:43:13;;;;;;;1.48;1.38;;;9.00;99.90;;;;;;4955911;28;20201;-72
2021/01/21 05:45:39;;;;;;;1.75;1.65;;;9.00;99.90;;;;;;4942084;29;20206;-72
2021/01/21 05:48:06;;;;;;;1.27;1.27;;;9.10;99.90;;;;;;4941129;29;20209;-72
2021/01/21 05:50:32;;;;;;;1.35;1.33;;;9.10;99.90;;;;;;4958456;28;20228;-72
2021/01/21 05:52:59;;;;;;;1.33;1.33;;;9.20;99.90;;;;;;4948533;28;20206;-72
2021/01/21 05:55:27;;;;;;;1.30;1.30;;;9.20;99.90;;;;;;4953105;29;20313;-72
2021/01/21 05:57:54;;;;;;;3.95;1.10;;;9.30;99.90;;;;;;4949565;28;20206;-72
2021/01/21 06:00:24;;;;;;;1.10;1.10;;;9.30;99.90;;;;;;4958955;28;20590;-72
2021/01/21 06:02:53;;;;;;;1.25;1.20;;;9.30;99.90;;;;;;4950539;28;20202;-72
2021/01/21 06:05:20;;;;;;;1.05;0.95;;;9.40;99.90;;;;;;4959743;29;20205;-71
2021/01/21 06:07:46;;;;;;;1.27;1.20;;;9.40;99.90;;;;;;4946389;28;20214;-71
2021/01/21 06:10:15;;;;;;;1.23;1.10;;;9.40;99.90;;;;;;4967387;29;20280;-72
2021/01/21 06:12:44;;;;;;;1.50;1.50;;;9.50;99.90;;;;;;4964621;28;20246;-72
2021/01/21 06:15:14;;;;;;;1.20;1.20;;;9.40;99.90;;;;;;4953377;28;20225;-72
2021/01/21 06:17:40;;;;;;;1.38;1.25;;;9.40;99.90;;;;;;4951112;29;20221;-71
2021/01/21 06:20:07;;;;;;;1.23;1.23;;;9.50;99.90;;;;;;4960804;29;20225;-71
2021/01/21 06:22:35;;;;;;;2.30;1.20;;;9.50;99.90;;;;;;4956470;29;20205;-71
2021/01/21 06:25:05;;;;;;;1.20;1.20;;;9.50;99.90;;;;;;4952729;28;20210;-70
2021/01/21 06:27:36;;;;;;;2.95;1.15;;;9.50;99.90;;;;;;4949616;29;20202;-71
2021/01/21 06:30:04;;;;;;;1.27;1.27;;;9.50;99.90;;;;;;4937023;29;20209;-72
2021/01/21 06:32:38;;;;;;;0.82;0.82;;;9.60;99.90;;;;;;4937047;29;20600;-69
2021/01/21 06:35:07;;;;;;;1.20;1.20;;;9.60;99.90;;;;;;4936928;29;20206;-69
2021/01/21 06:37:36;;;;;;;1.00;1.00;;;9.70;99.90;;;;;;4937181;29;20276;-69
2021/01/21 06:40:08;;;;;;;1.85;1.42;;;9.60;99.90;;;;;;4937559;29;20273;-69
2021/01/21 06:42:36;;;;;;;1.40;1.40;;;9.70;99.90;;;;;;4936370;29;20274;-69
2021/01/21 06:45:05;;;;;;;3.08;2.13;;;9.60;99.90;;;;;;4936010;29;20237;-69
2021/01/21 06:47:32;;;;;;;1.65;1.55;;;9.60;99.90;;;;;;4937120;29;20201;-69
2021/01/21 06:49:59;;;;;;;3.65;1.40;;;9.70;99.90;;;;;;4936920;29;20236;-69
2021/01/21 06:52:29;;;;;;;1.10;1.00;;;9.70;99.90;;;;;;4936681;29;20229;-69
2021/01/21 06:54:56;;;;;;;1.42;1.30;;;9.70;99.90;;;;;;4936577;29;20241;-69
2021/01/21 06:57:42;;;;;;;1.30;1.27;;;9.80;99.90;;;;;;4937127;29;20238;-69
2021/01/21 07:00:10;;;;;;;2.05;1.58;;;9.80;99.90;;;;;;4936166;29;20252;-70
2021/01/21 07:02:41;;;;;;;1.17;1.17;;;9.90;99.90;;;;;;4936220;29;20218;-75
2021/01/21 07:05:09;;;;;;;1.20;1.20;;;9.90;99.90;;;;;;4937827;29;20229;-75
2021/01/21 07:08:03;;;;;;;1.35;1.30;;;9.90;99.90;;;;;;4943749;28;20214;-72
2021/01/21 07:10:33;;;;;;;1.35;1.35;;;10.00;99.90;;;;;;4937095;29;20598;-73
2021/01/21 07:13:02;;;;;;;1.80;1.05;;;10.00;99.90;;;;;;4938085;29;20662;-72
2021/01/21 07:15:30;;;;;;;1.15;1.13;;;10.00;99.90;;;;;;4947764;29;20202;-73
2021/01/21 07:18:01;;;;;;;1.08;1.08;;;10.00;99.90;;;;;;4946986;29;20229;-75
2021/01/21 07:20:30;;;;;;;1.20;1.20;;;10.00;99.90;;;;;;4950709;28;20328;-75
2021/01/21 07:23:03;;;;;;;2.67;1.50;;;10.00;99.90;;;;;;4944037;28;20285;-75
2021/01/21 07:25:31;;;;;;;0.93;0.93;;;10.10;99.90;;;;;;4936621;29;20209;-75
2021/01/21 07:27:57;;;;;;;1.20;1.20;;;10.10;99.90;;;;;;4945612;29;20706;-73
2021/01/21 07:30:25;;;;;;;1.25;1.15;;;10.10;99.90;;;;;;4954506;28;20209;-72
2021/01/21 07:33:19;;;;;;;1.33;1.10;;;10.10;99.90;;;;;;4955100;28;20208;-71
2021/01/21 07:35:45;;;;;;;1.40;1.40;;;10.10;99.90;;;;;;4956245;28;20213;-72
2021/01/21 07:38:12;;;;;;;1.23;1.13;;;10.10;99.90;;;;;;4944045;28;20693;-71
2021/01/21 07:40:43;;;;;;;1.10;1.10;;;10.10;99.90;;;;;;4946633;29;20225;-71
2021/01/21 07:43:09;;;;;;;1.17;1.15;;;10.10;99.90;;;;;;4953877;28;20280;-72
2021/01/21 07:45:37;;;;;;;1.33;1.20;;;10.10;99.90;;;;;;4944768;28;20205;-71
2021/01/21 07:48:20;;;;;;;1.10;1.10;;;10.00;99.90;;;;;;4945871;29;20208;-70
2021/01/21 07:50:47;;;;;;;1.50;1.10;;;10.10;99.90;;;;;;4954565;28;20296;-71
2021/01/21 07:53:24;;;;;;;0.93;0.88;;;10.10;99.90;;;;;;4943647;28;20214;-71
2021/01/21 07:55:52;;;;;;;1.45;1.45;;;10.00;99.90;;;;;;4936069;29;20202;-71
2021/01/21 07:58:23;;;;;;;0.90;0.90;;;10.00;99.90;;;;;;4944213;29;20210;-71
2021/01/21 08:00:51;;;;;;;1.45;1.40;;;10.00;99.90;;;;;;4936667;28;20598;-71
2021/01/21 08:03:29;;;;;;;1.08;1.02;;;10.10;99.90;;;;;;4940326;28;20268;-70
2021/01/21 08:06:13;;;;;;;1.00;1.00;;;10.10;99.90;;;;;;4954705;28;20641;-70
2021/01/21 08:08:40;;;;;;;1.10;1.08;;;10.20;99.90;;;;;;4938475;28;20209;-70
2021/01/21 08:11:07;;;;;;;1.50;1.40;;;10.20;99.90;;;;;;4935649;29;20237;-70
2021/01/21 08:13:34;;;;;;;1.10;1.10;;;10.20;99.90;;;;;;4949403;29;20201;-70
2021/01/21 08:16:02;;;;;;;1.25;1.20;;;10.20;99.90;;;;;;4938288;28;20209;-70
2021/01/21 08:18:28;;;;;;;1.50;1.40;;;10.10;99.90;;;;;;4948426;29;20288;-70
2021/01/21 08:20:55;;;;;;;0.98;0.98;;;10.10;99.90;;;;;;4949254;28;20238;-70
2021/01/21 08:23:21;;;;;;;0.30;0.30;;;10.00;99.90;;;;;;4936051;29;20632;-70
2021/01/21 08:25:49;;;;;;;0.30;0.30;;;9.90;99.90;;;;;;4935302;29;20210;-70
2021/01/21 08:28:18;;;;;;;0.30;0.30;;;9.70;99.90;;;;;;4946375;29;20213;-70
2021/01/21 08:30:45;;;;;;;0.20;0.20;;;9.60;99.90;;;;;;4953363;28;20232;-70
2021/01/21 08:33:14;;;;;;;0.22;0.22;;;9.40;99.90;;;;;;4941765;28;20216;-70
2021/01/21 08:35:46;;;;;;;0.20;0.20;;;9.30;99.90;;;;;;4934802;29;20213;-69
2021/01/21 08:38:14;;;;;;;0.50;0.50;;;9.20;99.90;;;;;;4945730;29;20205;-70
2021/01/21 08:40:41;;;;;;;0.20;0.20;;;9.10;99.90;;;;;;4953913;28;20664;-70
2021/01/21 08:43:07;;;;;;;0.20;0.20;;;9.00;99.90;;;;;;4951436;28;20213;-70
2021/01/21 08:45:34;;;;;;;0.90;0.90;;;9.00;99.90;;;;;;4940142;28;20210;-71
2021/01/21 08:48:00;;;;;;;0.65;0.20;;;9.00;99.90;;;;;;4943197;29;20658;-70
2021/01/21 08:50:38;;;;;;;0.75;0.75;;;9.00;99.90;;;;;;4935549;29;20280;-70
2021/01/21 08:53:08;;;;;;;3.25;3.05;;;9.00;99.90;;;;;;4934851;29;20371;-70
2021/01/21 08:55:39;;;;;;;0.85;0.85;;;8.90;99.90;;;;;;4934982;29;20286;-71
2021/01/21 08:58:06;;;;;;;1.20;0.60;;;8.90;99.90;;;;;;4932272;29;20696;-70
2021/01/21 09:00:33;;;;;;;15.60;9.88;;;8.80;99.90;;;;;;4951886;28;20235;-70
2021/01/21 09:03:00;;;;;;;3.13;2.33;;;8.80;99.90;;;;;;4958869;28;20220;-70
2021/01/21 09:05:26;;;;;;;1.27;0.60;;;8.80;99.90;;;;;;4954523;28;20200;-70
2021/01/21 09:08:05;;;;;;;0.35;0.35;;;8.70;99.90;;;;;;4949844;28;20303;-70
2021/01/21 09:10:40;;;;;;;0.60;0.60;;;8.70;99.90;;;;;;4971629;28;20224;-70
2021/01/21 09:13:06;;;;;;;0.30;0.30;;;8.70;99.90;;;;;;4947904;28;20264;-70
2021/01/21 09:15:52;;;;;;;0.40;0.40;;;8.60;99.90;;;;;;4949032;29;20205;-70
2021/01/21 09:18:19;;;;;;;0.93;0.93;;;8.60;99.90;;;;;;4933389;29;20685;-71
2021/01/21 09:20:46;;;;;;;0.50;0.50;;;8.60;99.90;;;;;;4934629;29;20264;-70
2021/01/21 09:23:19;;;;;;;1.00;1.00;;;8.60;99.90;;;;;;4934351;29;20296;-70
2021/01/21 09:25:46;;;;;;;0.70;0.70;;;8.50;99.90;;;;;;4938623;29;20280;-71
2021/01/21 09:28:13;;;;;;;0.90;0.90;;;8.50;99.90;;;;;;4944747;28;20322;-70
2021/01/21 09:30:40;;;;;;;1.05;1.00;;;8.40;99.90;;;;;;4937579;28;20259;-70
2021/01/21 09:33:06;;;;;;;0.65;0.65;;;8.50;99.90;;;;;;4939171;29;20243;-70
2021/01/21 09:35:33;;;;;;;1.02;0.80;;;8.40;99.90;;;;;;4945825;29;20360;-70
2021/01/21 09:37:59;;;;;;;0.65;0.43;;;8.40;99.90;;;;;;4940871;29;20225;-70
2021/01/21 09:40:28;;;;;;;0.80;0.77;;;8.40;99.90;;;;;;4940826;29;20242;-70
2021/01/21 09:42:55;;;;;;;9.70;1.33;;;8.40;99.90;;;;;;4935796;29;20216;-69
2021/01/21 09:45:22;;;;;;;3.60;0.77;;;8.40;99.90;;;;;;4945520;29;20206;-70
2021/01/21 09:47:50;;;;;;;0.90;0.90;;;8.40;99.90;;;;;;4937173;29;20253;-70
2021/01/21 09:50:16;;;;;;;0.55;0.55;;;8.40;99.90;;;;;;4957741;28;20252;-70
2021/01/21 09:52:42;;;;;;;0.60;0.60;;;8.40;99.90;;;;;;4948024;28;20264;-70
2021/01/21 09:55:10;;;;;;;0.95;0.40;;;8.50;99.90;;;;;;4956622;28;20213;-70
2021/01/21 09:57:39;;;;;;;1.27;0.70;;;8.50;99.90;;;;;;4939141;29;20209;-70
2021/01/21 10:00:07;;;;;;;0.70;0.70;;;8.50;99.90;;;;;;4937878;29;20222;-69
2021/01/21 10:02:33;;;;;;;0.50;0.50;;;8.50;99.90;;;;;;4937235;29;20221;-70
2021/01/21 10:04:59;;;;;;;0.75;0.35;;;8.50;99.90;;;;;;4938074;29;20202;-70
2021/01/21 10:07:25;;;;;;;0.60;0.40;;;8.40;99.90;;;;;;4938894;29;20209;-70
2021/01/21 10:09:51;;;;;;;0.57;0.50;;;8.50;99.90;;;;;;4946657;29;20672;-70
2021/01/21 10:12:18;;;;;;;1.25;0.60;;;8.50;99.90;;;;;;4955805;28;20232;-70
2021/01/21 10:14:45;;;;;;;0.32;0.32;;;8.50;99.90;;;;;;4942537;28;20214;-70
2021/01/21 10:17:11;;;;;;;0.30;0.30;;;8.50;99.90;;;;;;4956749;28;20228;-70
2021/01/21 10:19:37;;;;;;;1.13;1.00;;;8.50;99.90;;;;;;4938074;28;20682;-70
2021/01/21 10:22:05;;;;;;;0.95;0.47;;;8.50;99.90;;;;;;4949093;29;20233;-70
2021/01/21 10:24:32;;;;;;;1.20;0.70;;;8.50;99.90;;;;;;4957030;28;20213;-70
2021/01/21 10:26:58;;;;;;;0.40;0.40;;;8.50;99.90;;;;;;4950732;29;20221;-70
2021/01/21 10:29:24;;;;;;;0.50;0.50;;;8.50;99.90;;;;;;4950521;28;20281;-70
2021/01/21 10:31:51;;;;;;;0.55;0.55;;;8.50;99.90;;;;;;4941041;29;20221;-70
2021/01/21 10:34:17;;;;;;;0.40;0.40;;;8.60;99.90;;;;;;4944787;28;20209;-70
2021/01/21 10:36:43;;;;;;;1.20;0.50;;;8.60;99.90;;;;;;4956571;28;20209;-71
2021/01/21 10:39:09;;;;;;;2.08;0.50;;;8.60;99.90;;;;;;4956555;28;20209;-67
2021/01/21 10:41:35;;;;;;;0.50;0.50;;;8.70;99.90;;;;;;4955912;28;20598;-71
2021/01/21 10:44:02;;;;;;;2.17;1.90;;;8.70;99.90;;;;;;4938560;28;20576;-70
2021/01/21 10:46:28;;;;;;;0.68;0.63;;;8.80;99.90;;;;;;4948407;29;20205;-70
2021/01/21 10:48:55;;;;;;;0.90;0.90;;;8.80;99.90;;;;;;4940307;29;20237;-70
2021/01/21 10:51:21;;;;;;;1.40;1.25;;;8.80;99.90;;;;;;4946492;28;20221;-71
2021/01/21 10:53:47;;;;;;;5.25;4.53;;;8.80;99.90;;;;;;4943639;29;20209;-70
2021/01/21 10:56:15;;;;;;;1.98;1.50;;;8.80;99.90;;;;;;4938728;29;21051;-70
2021/01/21 10:58:41;;;;;;;1.85;1.60;;;8.80;99.90;;;;;;4936053;29;20214;-69
2021/01/21 11:01:07;;;;;;;0.98;0.98;;;8.70;99.90;;;;;;4945955;29;20618;-68
2021/01/21 11:03:34;;;;;;;2.80;2.60;;;8.80;99.90;;;;;;4943528;28;20206;-70
2021/01/21 11:06:01;;;;;;;2.05;1.95;;;8.80;99.90;;;;;;4936695;29;20591;-69
2021/01/21 11:08:27;;;;;;;3.70;2.58;;;8.80;99.90;;;;;;4938027;29;20313;-69
2021/01/21 11:10:53;;;;;;;2.17;2.08;;;8.80;99.90;;;;;;4941016;29;20221;-70
2021/01/21 11:13:19;;;;;;;0.85;0.85;;;8.80;99.90;;;;;;4948855;28;20232;-70
2021/01/21 11:15:46;;;;;;;1.15;1.05;;;8.80;99.90;;;;;;4938163;29;20670;-69
2021/01/21 11:18:12;;;;;;;11.43;5.50;;;8.80;99.90;;;;;;4938398;29;20202;-71
2021/01/21 11:20:39;;;;;;;1.70;1.60;;;8.80;99.90;;;;;;4955929;28;20229;-71
2021/01/21 11:23:06;;;;;;;0.75;0.75;;;8.80;99.90;;;;;;4953464;28;20607;-71
2021/01/21 11:25:33;;;;;;;3.45;1.80;;;8.80;99.90;;;;;;4952591;28;20202;-71
2021/01/21 11:27:59;;;;;;;1.40;1.30;;;8.80;99.90;;;;;;4953922;29;20681;-73
2021/01/21 11:30:25;;;;;;;4.28;2.75;;;8.80;99.90;;;;;;4952769;28;20222;-71
2021/01/21 11:32:52;;;;;;;1.60;1.50;;;8.80;99.90;;;;;;4937054;29;20221;-71
2021/01/21 11:35:18;;;;;;;4.10;2.33;;;8.90;99.90;;;;;;4942972;29;20257;-71
2021/01/21 11:37:44;;;;;;;2.13;2.03;;;8.90;99.90;;;;;;4939922;29;20214;-71
2021/01/21 11:40:13;;;;;;;1.30;1.30;;;8.90;99.90;;;;;;4940795;28;20229;-69
2021/01/21 11:42:39;;;;;;;3.38;3.05;;;9.00;99.90;;;;;;4955863;29;20646;-73
2021/01/21 11:45:06;;;;;;;2.15;1.50;;;9.00;99.90;;;;;;4946457;29;20213;-74
2021/01/21 11:47:32;;;;;;;1.35;1.23;;;9.00;99.90;;;;;;4942919;29;20212;-75
2021/01/21 11:49:59;;;;;;;5.88;4.05;;;9.00;99.90;;;;;;4940111;29;20238;-74
2021/01/21 11:52:25;;;;;;;1.05;0.93;;;9.00;99.90;;;;;;4940658;29;20241;-74
2021/01/21 11:54:51;;;;;;;1.00;1.00;;;9.00;99.90;;;;;;4938869;29;20601;-74
2021/01/21 11:57:18;;;;;;;2.75;1.83;;;8.90;99.90;;;;;;4938091;29;20201;-74
2021/01/21 11:59:44;;;;;;;0.77;0.77;;;9.00;99.90;;;;;;4937628;29;20210;-71
2021/01/21 12:02:10;;;;;;;2.67;0.98;;;9.00;99.90;;;;;;4945624;29;20284;-71
2021/01/21 12:04:36;;;;;;;3.70;2.78;;;9.00;99.90;;;;;;4947413;28;20202;-71
2021/01/21 12:07:03;;;;;;;1.92;1.83;;;9.00;99.90;;;;;;4950555;29;20216;-71
2021/01/21 12:09:29;;;;;;;2.35;1.60;;;9.00;99.90;;;;;;4955673;28;20209;-70
2021/01/21 12:11:55;;;;;;;1.35;1.25;;;9.10;99.90;;;;;;4954022;28;20236;-71
2021/01/21 12:14:22;;;;;;;1.92;1.80;;;9.10;99.90;;;;;;4950958;28;20209;-71
2021/01/21 12:16:48;;;;;;;2.80;1.90;;;9.00;99.90;;;;;;4954418;28;20261;-70
2021/01/21 12:19:15;;;;;;;1.75;1.65;;;9.00;99.90;;;;;;4941304;28;20213;-71
2021/01/21 12:21:41;;;;;;;3.33;3.03;;;9.00;99.90;;;;;;4935308;29;20234;-70
2021/01/21 12:24:08;;;;;;;1.40;1.30;;;9.10;99.90;;;;;;4935643;29;20216;-71
2021/01/21 12:26:35;;;;;;;5.88;1.70;;;9.10;99.90;;;;;;4937593;28;20273;-70
2021/01/21 12:29:02;;;;;;;2.08;1.98;;;9.10;99.90;;;;;;4950918;29;20228;-70
2021/01/21 12:31:29;;;;;;;3.38;3.10;;;9.10;99.90;;;;;;4950970;28;23035;-68
2021/01/21 12:33:55;;;;;;;3.80;3.50;;;9.10;99.90;;;;;;4941923;29;20209;-70
2021/01/21 12:36:22;;;;;;;2.08;2.08;;;9.10;99.90;;;;;;4953740;28;20216;-71
2021/01/21 12:38:48;;;;;;;8.32;7.18;;;9.10;99.90;;;;;;4949598;28;20248;-74
2021/01/21 12:41:14;;;;;;;11.43;6.35;;;9.10;99.90;;;;;;4935936;29;20650;-74
2021/01/21 12:43:41;;;;;;;2.30;1.77;;;9.10;99.90;;;;;;4938765;29;20213;-74
2021/01/21 12:46:07;;;;;;;6.32;4.90;;;9.10;99.90;;;;;;4935986;29;20600;-75
2021/01/21 12:48:34;;;;;;;4.22;3.83;;;9.10;99.90;;;;;;4942169;29;20202;-74
2021/01/21 12:51:00;;;;;;;6.63;5.03;;;9.10;99.90;;;;;;4946614;29;20276;-74
2021/01/21 12:53:26;;;;;;;1.50;1.50;;;9.10;99.90;;;;;;4955241;28;20304;-74
2021/01/21 12:55:52;;;;;;;2.40;2.00;;;9.00;99.90;;;;;;4953558;28;20572;-75
2021/01/21 12:58:18;;;;;;;2.80;2.70;;;9.00;99.90;;;;;;4945327;28;20206;-74
2021/01/21 13:00:44;;;;;;;1.48;1.45;;;9.10;99.90;;;;;;4955365;29;20232;-74
2021/01/21 13:03:10;;;;;;;1.65;1.52;;;9.10;99.90;;;;;;4953377;29;20205;-74
2021/01/21 13:05:38;;;;;;;3.08;2.05;;;9.00;99.90;;;;;;4942679;28;20552;-74
2021/01/21 13:08:06;;;;;;;2.50;2.33;;;9.10;99.90;;;;;;4940073;28;20210;-74
2021/01/21 13:10:33;;;;;;;2.67;2.47;;;9.20;99.90;;;;;;4954739;28;20224;-73
2021/01/21 13:12:59;;;;;;;1.13;1.13;;;9.20;99.90;;;;;;4952047;28;20276;-72
2021/01/21 13:15:26;;;;;;;3.65;2.30;;;9.10;99.90;;;;;;4936117;29;20599;-73
2021/01/21 13:17:52;;;;;;;2.05;2.00;;;9.10;99.90;;;;;;4936291;29;20210;-74
2021/01/21 13:20:19;;;;;;;2.97;2.78;;;9.10;99.90;;;;;;4935855;29;20210;-73
2021/01/21 13:22:46;;;;;;;3.85;3.40;;;9.00;99.90;;;;;;4938272;29;20208;-73
2021/01/21 13:25:13;;;;;;;3.45;3.20;;;9.10;99.90;;;;;;4940365;29;20214;-75
2021/01/21 13:27:39;;;;;;;1.80;1.70;;;9.10;99.90;;;;;;4938776;29;20749;-70
2021/01/21 13:30:06;;;;;;;4.35;3.95;;;9.10;99.90;;;;;;4938533;28;20353;-70
2021/01/21 13:32:33;;;;;;;2.05;1.95;;;9.00;99.90;;;;;;4939041;29;20313;-70
2021/01/21 13:34:59;;;;;;;1.73;1.70;;;9.00;99.90;;;;;;4938752;29;20205;-70
2021/01/21 13:37:25;;;;;;;1.70;1.70;;;9.00;99.90;;;;;;4939281;29;20217;-70
2021/01/21 13:39:52;;;;;;;2.17;2.17;;;9.00;99.90;;;;;;4940906;28;20622;-69
2021/01/21 13:42:22;;;;;;;3.33;2.60;;;9.00;99.90;;;;;;4955560;28;20229;-69
2021/01/21 13:44:48;;;;;;;2.25;2.10;;;9.10;99.90;;;;;;4957262;28;20581;-69
2021/01/21 13:47:14;;;;;;;3.70;3.50;;;9.10;99.90;;;;;;4949142;28;20273;-69
2021/01/21 13:49:40;;;;;;;4.63;4.22;;;9.00;99.90;;;;;;4939772;29;20213;-71
2021/01/21 13:52:06;;;;;;;4.32;4.00;;;9.00;99.90;;;;;;4940097;29;20634;-69
2021/01/21 13:54:32;;;;;;;3.47;2.70;;;8.90;99.90;;;;;;4945219;29;20201;-70
2021/01/21 13:56:59;;;;;;;3.45;3.25;;;8.80;99.90;;;;;;4955495;28;20279;-69
2021/01/21 13:59:25;;;;;;;2.60;2.45;;;8.80;99.90;;;;;;4958230;28;20711;-70
2021/01/21 14:01:52;;;;;;;5.30;4.80;;;8.80;99.90;;;;;;4959711;28;20244;-70
2021/01/21 14:04:18;;;;;;;4.53;2.25;;;8.70;99.90;;;;;;4945234;28;20218;-71
2021/01/21 14:06:44;;;;;;;2.97;2.55;;;8.60;99.90;;;;;;4946417;28;20221;-71
2021/01/21 14:09:10;;;;;;;3.47;2.08;;;8.70;99.90;;;;;;4938635;29;20574;-71
2021/01/21 14:11:36;;;;;;;4.25;3.20;;;8.60;99.90;;;;;;4952510;28;20218;-70
2021/01/21 14:14:03;;;;;;;2.35;2.15;;;8.60;99.90;;;;;;4953149;29;20291;-71
2021/01/21 14:16:30;;;;;;;2.42;2.33;;;8.60;99.90;;;;;;4938788;28;20206;-70
2021/01/21 14:18:56;;;;;;;6.82;3.20;;;8.60;99.90;;;;;;4952223;29;20213;-70
2021/01/21 14:21:22;;;;;;;3.67;3.47;;;8.60;99.90;;;;;;4955416;28;20552;-71
2021/01/21 14:23:48;;;;;;;7.80;5.68;;;8.60;99.90;;;;;;4944554;28;20566;-70
2021/01/21 14:26:14;;;;;;;4.32;2.95;;;8.60;99.90;;;;;;4937592;29;20245;-70
2021/01/21 14:28:40;;;;;;;2.65;2.45;;;8.50;99.90;;;;;;4941631;29;20682;-70
2021/01/21 14:31:08;;;;;;;3.72;2.78;;;8.40;99.90;;;;;;4942917;29;20224;-70
2021/01/21 14:33:34;;;;;;;2.70;2.50;;;8.40;99.90;;;;;;4940027;28;20208;-70
2021/01/21 14:36:00;;;;;;;2.25;2.15;;;8.40;99.90;;;;;;4937983;29;20210;-70
2021/01/21 14:38:26;;;;;;;5.22;2.30;;;8.40;99.90;;;;;;4942373;29;20280;-69
2021/01/21 14:40:52;;;;;;;3.30;3.00;;;8.30;99.90;;;;;;4946018;28;20270;-71
2021/01/21 14:43:18;;;;;;;2.75;2.55;;;8.40;99.90;;;;;;4956209;28;20244;-70
2021/01/21 14:45:45;;;;;;;2.83;2.10;;;8.40;99.90;;;;;;4951542;28;20206;-70
2021/01/21 14:48:12;;;;;;;5.50;2.40;;;8.40;99.90;;;;;;4956506;28;20217;-70
2021/01/21 14:50:38;;;;;;;4.90;2.85;;;8.30;99.90;;;;;;4950961;28;20217;-70
2021/01/21 14:53:05;;;;;;;3.80;2.10;;;8.30;99.90;;;;;;4940746;28;20222;-70
2021/01/21 14:55:31;;;;;;;2.58;2.38;;;8.30;99.90;;;;;;4949505;28;20214;-70
2021/01/21 14:57:58;;;;;;;3.53;2.75;;;8.20;99.90;;;;;;4942144;28;20528;-69
2021/01/21 15:00:25;;;;;;;4.13;3.45;;;8.20;99.90;;;;;;4941643;29;20225;-69
2021/01/21 15:02:51;;;;;;;3.33;3.17;;;8.30;99.90;;;;;;4939380;29;20240;-70
2021/01/21 15:05:18;;;;;;;2.20;2.20;;;8.30;99.90;;;;;;4956139;28;20242;-70
2021/01/21 15:07:45;;;;;;;4.28;3.47;;;8.30;99.90;;;;;;4937387;29;20585;-70
2021/01/21 15:10:12;;;;;;;2.60;2.35;;;8.30;99.90;;;;;;4938023;28;20589;-70
2021/01/21 15:12:39;;;;;;;10.15;5.82;;;8.30;99.90;;;;;;4951448;29;20212;-70
2021/01/21 15:15:06;;;;;;;3.03;2.15;;;8.30;99.90;;;;;;4938976;28;20217;-70
2021/01/21 15:17:33;;;;;;;2.92;2.83;;;8.30;99.90;;;;;;4936855;29;20214;-71
2021/01/21 15:19:59;;;;;;;3.45;3.25;;;8.30;99.90;;;;;;4945458;29;20209;-70
2021/01/21 15:22:26;;;;;;;3.55;3.25;;;8.30;99.90;;;;;;4935504;29;20756;-71
2021/01/21 15:24:52;;;;;;;3.53;2.72;;;8.20;99.90;;;;;;4947127;28;20225;-70
2021/01/21 15:27:19;;;;;;;7.05;5.38;;;8.20;99.90;;;;;;4943887;28;20214;-70
2021/01/21 15:29:46;;;;;;;8.27;5.20;;;8.20;99.90;;;;;;4934632;29;20222;-70
2021/01/21 15:32:12;;;;;;;5.45;5.07;;;8.10;99.90;;;;;;4953224;29;20230;-71
2021/01/21 15:34:38;;;;;;;14.57;12.65;;;8.10;99.90;;;;;;4945798;28;20205;-70
2021/01/21 15:37:04;;;;;;;10.77;7.55;;;8.10;99.90;;;;;;4936681;28;20225;-71
2021/01/21 15:39:32;;;;;;;3.83;3.25;;;8.00;99.90;;;;;;4941234;29;20202;-71
2021/01/21 15:41:58;;;;;;;5.80;5.40;;;7.90;99.90;;;;;;4948306;29;20233;-71
2021/01/21 15:44:25;;;;;;;8.43;6.25;;;7.90;99.90;;;;;;4946114;28;20213;-71
2021/01/21 15:46:51;;;;;;;7.30;6.60;;;7.90;99.90;;;;;;4953122;29;20268;-71
2021/01/21 15:49:17;;;;;;;4.22;3.88;;;7.80;99.90;;;;;;4949308;28;20197;-71
2021/01/21 15:51:44;;;;;;;4.35;4.05;;;7.80;99.90;;;;;;4954026;28;20228;-71
2021/01/21 15:54:10;;;;;;;12.00;8.63;;;7.80;99.90;;;;;;4949116;28;20598;-71
2021/01/21 15:56:37;;;;;;;10.07;7.28;;;7.80;99.90;;;;;;4936595;29;20209;-71
2021/01/21 15:59:03;;;;;;;8.77;7.00;;;7.70;99.90;;;;;;4940080;29;20253;-71
2021/01/21 16:01:29;;;;;;;10.80;9.70;;;7.70;99.90;;;;;;4948123;29;20271;-72
2021/01/21 16:03:56;;;;;;;16.20;9.57;;;7.70;99.90;;;;;;4942323;28;20269;-70
2021/01/21 16:06:22;;;;;;;9.48;8.32;;;7.70;99.90;;;;;;4939113;28;20579;-70
2021/01/21 16:08:48;;;;;;;4.22;3.92;;;7.60;99.90;;;;;;4939564;29;20623;-72
2021/01/21 16:11:14;;;;;;;3.85;3.53;;;7.60;99.90;;;;;;4946829;29;20221;-71
2021/01/21 16:13:44;;;;;;;3.63;3.53;;;7.60;99.90;;;;;;4939327;28;20214;-72
2021/01/21 16:16:11;;;;;;;3.95;3.65;;;7.60;99.90;;;;;;4954418;28;20212;-72
2021/01/21 16:18:37;;;;;;;8.48;4.68;;;7.70;99.90;;;;;;4955008;28;20209;-72
2021/01/21 16:21:04;;;;;;;3.53;2.60;;;7.70;99.90;;;;;;4942080;28;20249;-72
2021/01/21 16:23:30;;;;;;;7.03;4.10;;;7.70;99.90;;;;;;4934533;29;20714;-72
2021/01/21 16:25:57;;;;;;;10.93;8.63;;;7.70;99.90;;;;;;4935450;29;20217;-74
2021/01/21 16:28:23;;;;;;;4.20;3.47;;;7.70;99.90;;;;;;4935431;29;20297;-73
2021/01/21 16:30:51;;;;;;;7.22;5.57;;;7.70;99.90;;;;;;4945222;29;20713;-73
2021/01/21 16:33:17;;;;;;;8.70;6.55;;;7.80;99.90;;;;;;4954174;28;20233;-73
2021/01/21 16:35:43;;;;;;;3.10;3.00;;;7.80;99.90;;;;;;4941327;28;20678;-71
2021/01/21 16:38:10;;;;;;;6.63;4.72;;;7.80;99.90;;;;;;4940095;28;20209;-74
2021/01/21 16:40:36;;;;;;;2.40;2.20;;;7.80;99.90;;;;;;4955099;28;20225;-71
2021/01/21 16:43:02;;;;;;;5.00;4.50;;;7.80;99.90;;;;;;4943381;28;20594;-73
2021/01/21 16:45:28;;;;;;;3.58;3.28;;;7.90;99.90;;;;;;4936987;29;20210;-73
2021/01/21 16:47:55;;;;;;;4.25;3.95;;;8.00;99.90;;;;;;4942542;28;20212;-73
2021/01/21 16:50:22;;;;;;;2.67;2.55;;;8.10;99.90;;;;;;4944888;28;20265;-72
2021/01/21 16:52:48;;;;;;;2.20;2.10;;;8.00;99.90;;;;;;4947112;28;20262;-72
2021/01/21 16:55:14;;;;;;;3.17;2.90;;;8.00;99.90;;;;;;4948941;29;20205;-72
2021/01/21 16:57:40;;;;;;;3.20;3.00;;;8.00;99.90;;;;;;4946300;28;20226;-72
2021/01/21 17:00:08;;;;;;;1.55;1.45;;;8.00;99.90;;;;;;4936918;29;20209;-72
2021/01/21 17:02:34;;;;;;;2.15;1.95;;;8.00;99.90;;;;;;4948587;28;20264;-72
2021/01/21 17:05:01;;;;;;;1.25;1.25;;;7.90;99.90;;;;;;4940260;29;20229;-72
2021/01/21 17:07:28;;;;;;;1.80;1.70;;;7.90;99.90;;;;;;4945010;29;20205;-73
2021/01/21 17:09:54;;;;;;;3.92;3.53;;;7.80;99.90;;;;;;4941151;29;20221;-73
2021/01/21 17:12:20;;;;;;;2.67;1.85;;;7.80;99.90;;;;;;4952854;28;20358;-73
2021/01/21 17:14:46;;;;;;;0.93;0.93;;;7.70;99.90;;;;;;4946059;28;20206;-73
2021/01/21 17:17:12;;;;;;;1.58;1.48;;;7.70;99.90;;;;;;4950075;29;20240;-73
2021/01/21 17:19:39;;;;;;;1.63;1.55;;;7.70;99.90;;;;;;4953094;28;20297;-73
2021/01/21 17:22:05;;;;;;;4.43;3.20;;;7.70;99.90;;;;;;4940196;28;20222;-74
2021/01/21 17:24:32;;;;;;;2.97;2.85;;;7.60;99.90;;;;;;4939372;29;20268;-74
2021/01/21 17:26:59;;;;;;;1.90;1.70;;;7.60;99.90;;;;;;4948301;28;20325;-73
2021/01/21 17:29:26;;;;;;;2.15;1.00;;;7.50;99.90;;;;;;4952566;28;20301;-73
2021/01/21 17:31:52;;;;;;;0.90;0.90;;;7.50;99.90;;;;;;4936282;28;20710;-73
2021/01/21 17:34:18;;;;;;;1.13;1.13;;;7.40;99.90;;;;;;4949356;29;20268;-74
2021/01/21 17:36:44;;;;;;;1.05;0.68;;;7.40;99.90;;;;;;4943924;28;20265;-78
2021/01/21 17:39:11;;;;;;;1.13;1.10;;;7.30;99.90;;;;;;4938111;29;20202;-75
2021/01/21 17:41:38;;;;;;;1.00;1.00;;;7.30;99.90;;;;;;4950418;28;20228;-75
2021/01/21 17:44:05;;;;;;;4.32;3.50;;;7.20;99.90;;;;;;4956816;28;20245;-76
2021/01/21 17:46:31;;;;;;;1.75;1.65;;;7.20;99.90;;;;;;4941443;28;20265;-77
2021/01/21 17:48:58;;;;;;;1.40;1.30;;;7.10;99.90;;;;;;4956908;28;20240;-77
2021/01/21 17:51:24;;;;;;;2.65;1.50;;;7.10;99.90;;;;;;4943891;28;20222;-77
2021/01/21 17:53:50;;;;;;;0.90;0.90;;;7.10;99.90;;;;;;4937794;29;20213;-77
2021/01/21 17:56:17;;;;;;;1.95;1.15;;;7.00;99.90;;;;;;4946286;28;20201;-78